EWG92N EGLL-EDDH
Flight info
| Callsign | EWG92N |
|---|---|
| Flight time | 1h 1m |
| Altitude | 35000 |
| Route | BPK Q295 SOMVA DCT MAVAS DCT GASTU DCT OSTOR/N0371F230 T904 RIBSO RIBSO3P |
| Aircraft | A320/M-SDE3FGHIRWY/LB1 |
Departure
| Time | 2026-04-26 19:27 |
|---|---|
| Airport | London Heathrow Airport (EGLL) |
Arrival
| Time | 2026-04-26 20:28 |
|---|---|
| Airport | Hamburg Helmut Schmidt Airport (EDDH) |
| Time | Latitude | Longitude | Altitude | Speed | Heading |
|---|---|---|---|---|---|
| 2026-04-26 18:45 | 51.46820 | -0.44680 | 90 ft | 0 kts | 268° |
| 2026-04-26 19:12 | 51.46821 | -0.44649 | 91 ft | 4 kts | 267° |
| 2026-04-26 19:13 | 51.46822 | -0.44609 | 88 ft | 2 kts | 267° |
| 2026-04-26 19:13 | 51.46825 | -0.44574 | 87 ft | 4 kts | 236° |
| 2026-04-26 19:13 | 51.46843 | -0.44554 | 90 ft | 3 kts | 180° |
| 2026-04-26 19:13 | 51.46862 | -0.44555 | 88 ft | 0 kts | 179° |
| 2026-04-26 19:17 | 51.46804 | -0.44555 | 87 ft | 15 kts | 181° |
| 2026-04-26 19:17 | 51.46736 | -0.44572 | 88 ft | 7 kts | 187° |
| 2026-04-26 19:17 | 51.46672 | -0.44640 | 88 ft | 19 kts | 247° |
| 2026-04-26 19:17 | 51.46665 | -0.44877 | 86 ft | 21 kts | 270° |
| 2026-04-26 19:18 | 51.46666 | -0.45100 | 86 ft | 19 kts | 269° |
| 2026-04-26 19:18 | 51.46664 | -0.45304 | 86 ft | 17 kts | 269° |
| 2026-04-26 19:18 | 51.46663 | -0.45489 | 86 ft | 16 kts | 269° |
| 2026-04-26 19:18 | 51.46662 | -0.45658 | 86 ft | 14 kts | 269° |
| 2026-04-26 19:19 | 51.46661 | -0.45812 | 86 ft | 13 kts | 269° |
| 2026-04-26 19:19 | 51.46661 | -0.46002 | 86 ft | 21 kts | 270° |
| 2026-04-26 19:19 | 51.46661 | -0.46268 | 86 ft | 27 kts | 269° |
| 2026-04-26 19:19 | 51.46659 | -0.46590 | 89 ft | 30 kts | 270° |
| 2026-04-26 19:20 | 51.46659 | -0.46882 | 86 ft | 19 kts | 269° |
| 2026-04-26 19:20 | 51.46658 | -0.47021 | 90 ft | 18 kts | 269° |
| 2026-04-26 19:20 | 51.46656 | -0.47277 | 88 ft | 16 kts | 270° |
| 2026-04-26 19:20 | 51.46657 | -0.47468 | 86 ft | 18 kts | 269° |
| 2026-04-26 19:21 | 51.46657 | -0.47672 | 89 ft | 19 kts | 270° |
| 2026-04-26 19:21 | 51.46657 | -0.47891 | 88 ft | 20 kts | 261° |
| 2026-04-26 19:21 | 51.46654 | -0.48058 | 86 ft | 10 kts | 270° |
| 2026-04-26 19:21 | 51.46654 | -0.48099 | 86 ft | 0 kts | 270° |
| 2026-04-26 19:23 | 51.46654 | -0.48103 | 86 ft | 3 kts | 270° |
| 2026-04-26 19:23 | 51.46632 | -0.48199 | 88 ft | 10 kts | 222° |
| 2026-04-26 19:24 | 51.46612 | -0.48210 | 87 ft | 0 kts | 182° |
| 2026-04-26 19:24 | 51.46585 | -0.48212 | 87 ft | 12 kts | 182° |
| 2026-04-26 19:24 | 51.46480 | -0.48115 | 88 ft | 3 kts | 90° |
| 2026-04-26 19:26 | 51.46480 | -0.48103 | 87 ft | 6 kts | 90° |
| 2026-04-26 19:27 | 51.46480 | -0.47686 | 86 ft | 74 kts | 90° |
| 2026-04-26 19:27 | 51.46484 | -0.46521 | 91 ft | 132 kts | 90° |
| 2026-04-26 19:27 | 51.46489 | -0.44847 | 327 ft | 158 kts | 90° |
| 2026-04-26 19:27 | 51.46480 | -0.43034 | 953 ft | 166 kts | 90° |
| 2026-04-26 19:28 | 51.46574 | -0.41176 | 1610 ft | 171 kts | 75° |
| 2026-04-26 19:28 | 51.47288 | -0.39524 | 1964 ft | 197 kts | 46° |
| 2026-04-26 19:28 | 51.48280 | -0.37840 | 2366 ft | 220 kts | 50° |
| 2026-04-26 19:28 | 51.49347 | -0.35883 | 2824 ft | 245 kts | 50° |
| 2026-04-26 19:29 | 51.50486 | -0.33741 | 3515 ft | 257 kts | 50° |
| 2026-04-26 19:29 | 51.51649 | -0.31520 | 4422 ft | 261 kts | 51° |
| 2026-04-26 19:29 | 51.52544 | -0.28954 | 5336 ft | 266 kts | 70° |
| 2026-04-26 19:29 | 51.53156 | -0.26134 | 5827 ft | 271 kts | 71° |
| 2026-04-26 19:30 | 51.53894 | -0.23348 | 5980 ft | 272 kts | 58° |
| 2026-04-26 19:30 | 51.55130 | -0.21059 | 6003 ft | 272 kts | 38° |
| 2026-04-26 19:30 | 51.56781 | -0.19538 | 6534 ft | 276 kts | 24° |
| 2026-04-26 19:30 | 51.57946 | -0.18692 | 7113 ft | 279 kts | 23° |
| 2026-04-26 19:31 | 51.60474 | -0.17284 | 8282 ft | 283 kts | 14° |
| 2026-04-26 19:31 | 51.62326 | -0.16455 | 9117 ft | 287 kts | 14° |
| 2026-04-26 19:31 | 51.64264 | -0.15587 | 9969 ft | 291 kts | 14° |
| 2026-04-26 19:31 | 51.66238 | -0.14696 | 10603 ft | 303 kts | 14° |
| 2026-04-26 19:32 | 51.68346 | -0.13739 | 10854 ft | 326 kts | 14° |
| 2026-04-26 19:32 | 51.70561 | -0.12599 | 11330 ft | 340 kts | 22° |
| 2026-04-26 19:32 | 51.72603 | -0.10584 | 12020 ft | 349 kts | 38° |
| 2026-04-26 19:32 | 51.74262 | -0.07700 | 12727 ft | 355 kts | 55° |
| 2026-04-26 19:33 | 51.75382 | -0.04114 | 13426 ft | 361 kts | 72° |
| 2026-04-26 19:33 | 51.75879 | -0.00126 | 14109 ft | 365 kts | 83° |
| 2026-04-26 19:33 | 51.76214 | 0.03961 | 14803 ft | 368 kts | 83° |
| 2026-04-26 19:33 | 51.76546 | 0.08070 | 15184 ft | 370 kts | 83° |
| 2026-04-26 19:34 | 51.76877 | 0.12199 | 15299 ft | 370 kts | 83° |
| 2026-04-26 19:34 | 51.77209 | 0.16314 | 15329 ft | 370 kts | 83° |
| 2026-04-26 19:34 | 51.77545 | 0.20441 | 15326 ft | 370 kts | 83° |
| 2026-04-26 19:34 | 51.77881 | 0.24565 | 15331 ft | 370 kts | 83° |
| 2026-04-26 19:35 | 51.78218 | 0.28687 | 15331 ft | 370 kts | 83° |
| 2026-04-26 19:35 | 51.78557 | 0.32807 | 15332 ft | 370 kts | 83° |
| 2026-04-26 19:35 | 51.78894 | 0.36927 | 15325 ft | 370 kts | 83° |
| 2026-04-26 19:35 | 51.79223 | 0.41045 | 15325 ft | 370 kts | 83° |
| 2026-04-26 19:36 | 51.79544 | 0.45118 | 15319 ft | 370 kts | 83° |
| 2026-04-26 19:36 | 51.79653 | 0.46509 | 15329 ft | 370 kts | 83° |
| 2026-04-26 19:36 | 51.80188 | 0.53362 | 15324 ft | 370 kts | 83° |
| 2026-04-26 19:36 | 51.80513 | 0.57501 | 15476 ft | 373 kts | 83° |
| 2026-04-26 19:37 | 51.80840 | 0.61667 | 16190 ft | 375 kts | 83° |
| 2026-04-26 19:37 | 51.81360 | 0.65811 | 16825 ft | 379 kts | 72° |
| 2026-04-26 19:37 | 51.82309 | 0.69800 | 17440 ft | 382 kts | 66° |
| 2026-04-26 19:37 | 51.83352 | 0.73773 | 18080 ft | 386 kts | 66° |
| 2026-04-26 19:38 | 51.84401 | 0.77791 | 18693 ft | 389 kts | 66° |
| 2026-04-26 19:38 | 51.85451 | 0.81849 | 19218 ft | 393 kts | 66° |
| 2026-04-26 19:38 | 51.86505 | 0.85945 | 19740 ft | 396 kts | 66° |
| 2026-04-26 19:38 | 51.87568 | 0.90085 | 20263 ft | 400 kts | 66° |
| 2026-04-26 19:39 | 51.88641 | 0.94257 | 20778 ft | 403 kts | 66° |
| 2026-04-26 19:39 | 51.89720 | 0.98468 | 21278 ft | 406 kts | 66° |
| 2026-04-26 19:39 | 51.92489 | 1.09318 | 22564 ft | 414 kts | 67° |
| 2026-04-26 19:39 | 51.96955 | 1.26859 | 24352 ft | 427 kts | 66° |
| 2026-04-26 19:40 | 52.01515 | 1.44897 | 25875 ft | 438 kts | 66° |
| 2026-04-26 19:40 | 52.06161 | 1.63482 | 27292 ft | 449 kts | 67° |
| 2026-04-26 19:40 | 52.10829 | 1.82326 | 28648 ft | 459 kts | 67° |
| 2026-04-26 19:40 | 52.15689 | 2.02068 | 29966 ft | 469 kts | 66° |
| 2026-04-26 19:41 | 52.20490 | 2.21788 | 31047 ft | 477 kts | 67° |
| 2026-04-26 19:41 | 52.25376 | 2.42051 | 32218 ft | 480 kts | 67° |
| 2026-04-26 19:41 | 52.30207 | 2.62225 | 33747 ft | 475 kts | 67° |
| 2026-04-26 19:41 | 52.31564 | 2.69170 | 34234 ft | 475 kts | 73° |
| 2026-04-26 19:42 | 52.37601 | 3.03468 | 35378 ft | 460 kts | 72° |
| 2026-04-26 19:42 | 52.41753 | 3.23264 | 35413 ft | 461 kts | 62° |
| 2026-04-26 19:42 | 52.47117 | 3.42359 | 35249 ft | 465 kts | 63° |
| 2026-04-26 19:42 | 52.51030 | 3.56435 | 35301 ft | 463 kts | 62° |
| 2026-04-26 19:43 | 52.53646 | 3.65830 | 35340 ft | 459 kts | 62° |
| 2026-04-26 19:43 | 52.56293 | 3.75387 | 35342 ft | 459 kts | 62° |
| 2026-04-26 19:44 | 52.58929 | 3.84947 | 35338 ft | 459 kts | 62° |
| 2026-04-26 19:44 | 52.61543 | 3.94455 | 35342 ft | 459 kts | 62° |
| 2026-04-26 19:45 | 52.64163 | 4.04042 | 35349 ft | 459 kts | 62° |
| 2026-04-26 19:45 | 52.66770 | 4.13624 | 35351 ft | 458 kts | 62° |
| 2026-04-26 19:46 | 52.69369 | 4.23205 | 35366 ft | 457 kts | 62° |
| 2026-04-26 19:46 | 52.71520 | 4.31172 | 35356 ft | 458 kts | 62° |
| 2026-04-26 19:47 | 52.73687 | 4.39218 | 35351 ft | 458 kts | 62° |
| 2026-04-26 19:47 | 52.76689 | 4.50390 | 35340 ft | 458 kts | 62° |
| 2026-04-26 19:48 | 52.79255 | 4.60006 | 35338 ft | 458 kts | 62° |
| 2026-04-26 19:48 | 52.81817 | 4.69660 | 35352 ft | 458 kts | 62° |
| 2026-04-26 19:49 | 52.84373 | 4.79309 | 35353 ft | 458 kts | 62° |
| 2026-04-26 19:49 | 52.86922 | 4.88964 | 35353 ft | 458 kts | 62° |
| 2026-04-26 19:50 | 52.89459 | 4.98639 | 35350 ft | 458 kts | 63° |
| 2026-04-26 19:50 | 52.91992 | 5.08330 | 35362 ft | 458 kts | 62° |
| 2026-04-26 19:51 | 52.94494 | 5.17967 | 35360 ft | 459 kts | 62° |
| 2026-04-26 19:51 | 52.97015 | 5.27697 | 35356 ft | 459 kts | 62° |
| 2026-04-26 19:52 | 52.99526 | 5.37434 | 35351 ft | 459 kts | 62° |
| 2026-04-26 19:52 | 53.02021 | 5.47188 | 35351 ft | 459 kts | 62° |
| 2026-04-26 19:53 | 53.04516 | 5.56942 | 35355 ft | 459 kts | 62° |
| 2026-04-26 19:53 | 53.07009 | 5.66718 | 35368 ft | 459 kts | 62° |
| 2026-04-26 19:54 | 53.09491 | 5.76500 | 35372 ft | 458 kts | 62° |
| 2026-04-26 19:54 | 53.11814 | 5.86330 | 35377 ft | 460 kts | 65° |
| 2026-04-26 19:55 | 53.13952 | 5.96385 | 35361 ft | 461 kts | 66° |
| 2026-04-26 19:55 | 53.16069 | 6.06497 | 35357 ft | 461 kts | 65° |
| 2026-04-26 19:56 | 53.18226 | 6.16565 | 35364 ft | 461 kts | 65° |
| 2026-04-26 19:56 | 53.20399 | 6.26625 | 35366 ft | 461 kts | 65° |
| 2026-04-26 19:57 | 53.22553 | 6.36681 | 35358 ft | 460 kts | 65° |
| 2026-04-26 19:57 | 53.24696 | 6.46756 | 35358 ft | 460 kts | 65° |
| 2026-04-26 19:58 | 53.26820 | 6.56831 | 35363 ft | 460 kts | 65° |
| 2026-04-26 19:58 | 53.28937 | 6.66951 | 35357 ft | 460 kts | 65° |
| 2026-04-26 19:59 | 53.31034 | 6.76977 | 35370 ft | 460 kts | 66° |
| 2026-04-26 19:59 | 53.33110 | 6.86912 | 35353 ft | 459 kts | 66° |
| 2026-04-26 20:00 | 53.34161 | 6.91964 | 35196 ft | 461 kts | 66° |
| 2026-04-26 20:00 | 53.35210 | 6.97039 | 34780 ft | 460 kts | 66° |
| 2026-04-26 20:00 | 53.36252 | 7.02101 | 34374 ft | 460 kts | 65° |
| 2026-04-26 20:00 | 53.37288 | 7.07154 | 33910 ft | 458 kts | 65° |
| 2026-04-26 20:01 | 53.38316 | 7.12182 | 33439 ft | 455 kts | 65° |
| 2026-04-26 20:01 | 53.39336 | 7.17170 | 32994 ft | 451 kts | 65° |
| 2026-04-26 20:01 | 53.40350 | 7.22135 | 32578 ft | 448 kts | 65° |
| 2026-04-26 20:01 | 53.41355 | 7.27067 | 32131 ft | 445 kts | 66° |
| 2026-04-26 20:02 | 53.42350 | 7.31959 | 31688 ft | 442 kts | 65° |
| 2026-04-26 20:02 | 53.43336 | 7.36815 | 31263 ft | 438 kts | 65° |
| 2026-04-26 20:02 | 53.44314 | 7.41645 | 30827 ft | 436 kts | 65° |
| 2026-04-26 20:02 | 53.44955 | 7.44827 | 30551 ft | 434 kts | 65° |
| 2026-04-26 20:03 | 53.46237 | 7.51208 | 29942 ft | 430 kts | 66° |
| 2026-04-26 20:03 | 53.47185 | 7.55938 | 29464 ft | 426 kts | 66° |
| 2026-04-26 20:03 | 53.48129 | 7.60654 | 28992 ft | 423 kts | 66° |
| 2026-04-26 20:03 | 53.49047 | 7.65258 | 28537 ft | 420 kts | 66° |
| 2026-04-26 20:04 | 53.49967 | 7.69888 | 28095 ft | 417 kts | 66° |
| 2026-04-26 20:04 | 53.50881 | 7.74495 | 27641 ft | 414 kts | 66° |
| 2026-04-26 20:04 | 53.51787 | 7.79064 | 27216 ft | 411 kts | 67° |
| 2026-04-26 20:04 | 53.52686 | 7.83600 | 26773 ft | 408 kts | 67° |
| 2026-04-26 20:05 | 53.53579 | 7.88109 | 26340 ft | 405 kts | 67° |
| 2026-04-26 20:05 | 53.54465 | 7.92585 | 25921 ft | 402 kts | 67° |
| 2026-04-26 20:05 | 53.55342 | 7.97040 | 25498 ft | 399 kts | 67° |
| 2026-04-26 20:05 | 53.56205 | 8.01459 | 25082 ft | 397 kts | 68° |
| 2026-04-26 20:06 | 53.57064 | 8.05861 | 24676 ft | 394 kts | 68° |
| 2026-04-26 20:06 | 53.57916 | 8.10224 | 24274 ft | 391 kts | 68° |
| 2026-04-26 20:06 | 53.58761 | 8.14567 | 23870 ft | 389 kts | 68° |
| 2026-04-26 20:06 | 53.59599 | 8.18875 | 23400 ft | 386 kts | 68° |
| 2026-04-26 20:07 | 53.60432 | 8.23166 | 22916 ft | 384 kts | 68° |
| 2026-04-26 20:07 | 53.61257 | 8.27426 | 22477 ft | 381 kts | 68° |
| 2026-04-26 20:07 | 53.62072 | 8.31656 | 22023 ft | 379 kts | 68° |
| 2026-04-26 20:07 | 53.62884 | 8.35865 | 21595 ft | 376 kts | 68° |
| 2026-04-26 20:08 | 53.63687 | 8.40033 | 21155 ft | 373 kts | 68° |
| 2026-04-26 20:08 | 53.64475 | 8.44133 | 20724 ft | 371 kts | 68° |
| 2026-04-26 20:08 | 53.65263 | 8.48257 | 20302 ft | 368 kts | 69° |
| 2026-04-26 20:08 | 53.66042 | 8.52351 | 19888 ft | 366 kts | 69° |
| 2026-04-26 20:09 | 53.66816 | 8.56419 | 19471 ft | 363 kts | 69° |
| 2026-04-26 20:09 | 53.67585 | 8.60466 | 19063 ft | 361 kts | 69° |
| 2026-04-26 20:09 | 53.68349 | 8.64493 | 18666 ft | 359 kts | 69° |
| 2026-04-26 20:09 | 53.69107 | 8.68493 | 18216 ft | 357 kts | 69° |
| 2026-04-26 20:10 | 53.69860 | 8.72471 | 17762 ft | 355 kts | 69° |
| 2026-04-26 20:10 | 53.70606 | 8.76427 | 17302 ft | 353 kts | 69° |
| 2026-04-26 20:10 | 53.71348 | 8.80374 | 16867 ft | 352 kts | 69° |
| 2026-04-26 20:10 | 53.72087 | 8.84310 | 16431 ft | 351 kts | 69° |
| 2026-04-26 20:11 | 53.72822 | 8.88233 | 16002 ft | 349 kts | 69° |
| 2026-04-26 20:11 | 53.73551 | 8.92136 | 15583 ft | 348 kts | 69° |
| 2026-04-26 20:11 | 53.74268 | 8.95984 | 15167 ft | 347 kts | 69° |
| 2026-04-26 20:12 | 53.75705 | 9.03733 | 14351 ft | 344 kts | 69° |
| 2026-04-26 20:12 | 53.76420 | 9.07592 | 13911 ft | 343 kts | 69° |
| 2026-04-26 20:12 | 53.77131 | 9.11430 | 13459 ft | 341 kts | 69° |
| 2026-04-26 20:12 | 53.77837 | 9.15251 | 13010 ft | 339 kts | 69° |
| 2026-04-26 20:13 | 53.78539 | 9.19053 | 12569 ft | 337 kts | 69° |
| 2026-04-26 20:13 | 53.79235 | 9.22832 | 12127 ft | 335 kts | 69° |
| 2026-04-26 20:13 | 53.79920 | 9.26581 | 11699 ft | 333 kts | 69° |
| 2026-04-26 20:13 | 53.80592 | 9.30266 | 11340 ft | 329 kts | 69° |
| 2026-04-26 20:14 | 53.81248 | 9.33930 | 11088 ft | 322 kts | 71° |
| 2026-04-26 20:14 | 53.81720 | 9.37655 | 10835 ft | 317 kts | 74° |
| 2026-04-26 20:14 | 53.82156 | 9.41240 | 10597 ft | 314 kts | 74° |
| 2026-04-26 20:14 | 53.82595 | 9.44850 | 10376 ft | 312 kts | 74° |
| 2026-04-26 20:15 | 53.83027 | 9.48418 | 10166 ft | 304 kts | 74° |
| 2026-04-26 20:15 | 53.83446 | 9.51877 | 10044 ft | 296 kts | 74° |
| 2026-04-26 20:15 | 53.83859 | 9.55282 | 9908 ft | 295 kts | 74° |
| 2026-04-26 20:15 | 53.84268 | 9.58681 | 9775 ft | 294 kts | 74° |
| 2026-04-26 20:16 | 53.84676 | 9.62076 | 9648 ft | 293 kts | 75° |
| 2026-04-26 20:16 | 53.85081 | 9.65461 | 9513 ft | 293 kts | 75° |
| 2026-04-26 20:16 | 53.85481 | 9.68834 | 9379 ft | 292 kts | 75° |
| 2026-04-26 20:16 | 53.85877 | 9.72190 | 9260 ft | 286 kts | 75° |
| 2026-04-26 20:17 | 53.86252 | 9.75399 | 9128 ft | 275 kts | 75° |
| 2026-04-26 20:17 | 53.86606 | 9.78523 | 8998 ft | 266 kts | 78° |
| 2026-04-26 20:17 | 53.86624 | 9.81631 | 8867 ft | 264 kts | 94° |
| 2026-04-26 20:17 | 53.86479 | 9.83709 | 8779 ft | 263 kts | 94° |
| 2026-04-26 20:18 | 53.86196 | 9.87781 | 8611 ft | 262 kts | 94° |
| 2026-04-26 20:18 | 53.85982 | 9.90838 | 8483 ft | 261 kts | 94° |
| 2026-04-26 20:18 | 53.85766 | 9.93894 | 8312 ft | 261 kts | 94° |
| 2026-04-26 20:18 | 53.85550 | 9.96933 | 8145 ft | 260 kts | 94° |
| 2026-04-26 20:19 | 53.85334 | 9.99965 | 8005 ft | 259 kts | 94° |
| 2026-04-26 20:19 | 53.85120 | 10.02987 | 7868 ft | 258 kts | 94° |
| 2026-04-26 20:19 | 53.84903 | 10.06011 | 7732 ft | 258 kts | 94° |
| 2026-04-26 20:19 | 53.84686 | 10.09028 | 7594 ft | 257 kts | 94° |
| 2026-04-26 20:20 | 53.84471 | 10.12028 | 7458 ft | 257 kts | 95° |
| 2026-04-26 20:20 | 53.84256 | 10.15029 | 7271 ft | 256 kts | 94° |
| 2026-04-26 20:20 | 53.84294 | 10.17966 | 7024 ft | 251 kts | 76° |
| 2026-04-26 20:20 | 53.84845 | 10.20723 | 6784 ft | 246 kts | 58° |
| 2026-04-26 20:21 | 53.85821 | 10.23061 | 6527 ft | 242 kts | 46° |
| 2026-04-26 20:21 | 53.86747 | 10.25623 | 6269 ft | 271 kts | 70° |
| 2026-04-26 20:21 | 53.86903 | 10.28840 | 6007 ft | 279 kts | 99° |
| 2026-04-26 20:21 | 53.86168 | 10.31861 | 5699 ft | 280 kts | 127° |
| 2026-04-26 20:22 | 53.84827 | 10.33868 | 5595 ft | 264 kts | 154° |
| 2026-04-26 20:22 | 53.83177 | 10.34762 | 5553 ft | 245 kts | 177° |
| 2026-04-26 20:22 | 53.81537 | 10.34539 | 5402 ft | 231 kts | 200° |
| 2026-04-26 20:22 | 53.80137 | 10.33387 | 5179 ft | 221 kts | 220° |
| 2026-04-26 20:23 | 53.79079 | 10.31560 | 4899 ft | 217 kts | 232° |
| 2026-04-26 20:23 | 53.78136 | 10.29619 | 4612 ft | 210 kts | 232° |
| 2026-04-26 20:23 | 53.77228 | 10.27752 | 4331 ft | 203 kts | 232° |
| 2026-04-26 20:23 | 53.76341 | 10.25935 | 4057 ft | 196 kts | 232° |
| 2026-04-26 20:24 | 53.75486 | 10.24183 | 3797 ft | 191 kts | 232° |
| 2026-04-26 20:24 | 53.74659 | 10.22491 | 3566 ft | 182 kts | 232° |
| 2026-04-26 20:24 | 53.73873 | 10.20884 | 3303 ft | 173 kts | 232° |
| 2026-04-26 20:24 | 53.73120 | 10.19345 | 3065 ft | 169 kts | 232° |
| 2026-04-26 20:25 | 53.72378 | 10.17829 | 2838 ft | 167 kts | 232° |
| 2026-04-26 20:25 | 53.72128 | 10.17319 | 2764 ft | 166 kts | 232° |
| 2026-04-26 20:25 | 53.70907 | 10.14827 | 2379 ft | 165 kts | 232° |
| 2026-04-26 20:25 | 53.70174 | 10.13332 | 2155 ft | 165 kts | 232° |
| 2026-04-26 20:26 | 53.69439 | 10.11835 | 1933 ft | 166 kts | 232° |
| 2026-04-26 20:26 | 53.68705 | 10.10340 | 1691 ft | 163 kts | 232° |
| 2026-04-26 20:26 | 53.68008 | 10.08924 | 1485 ft | 148 kts | 233° |
| 2026-04-26 20:26 | 53.67369 | 10.07626 | 1272 ft | 141 kts | 234° |
| 2026-04-26 20:27 | 53.66754 | 10.06371 | 1080 ft | 137 kts | 234° |
| 2026-04-26 20:27 | 53.66158 | 10.05117 | 905 ft | 137 kts | 234° |
| 2026-04-26 20:27 | 53.65541 | 10.03887 | 730 ft | 138 kts | 231° |
| 2026-04-26 20:27 | 53.64925 | 10.02655 | 527 ft | 137 kts | 233° |
| 2026-04-26 20:28 | 53.64326 | 10.01424 | 325 ft | 136 kts | 232° |
| 2026-04-26 20:28 | 53.63725 | 10.00206 | 121 ft | 135 kts | 232° |
| 2026-04-26 20:28 | 53.63159 | 9.99062 | 46 ft | 108 kts | 230° |
| 2026-04-26 20:28 | 53.62812 | 9.98372 | 43 ft | 28 kts | 227° |
| 2026-04-26 20:29 | 53.62743 | 9.98365 | 44 ft | 6 kts | 152° |
| 2026-04-26 20:29 | 53.62717 | 9.98395 | 45 ft | 6 kts | 141° |
| 2026-04-26 20:29 | 53.62682 | 9.98520 | 44 ft | 17 kts | 70° |
| 2026-04-26 20:29 | 53.62754 | 9.98683 | 47 ft | 18 kts | 51° |
| 2026-04-26 20:30 | 53.62837 | 9.98852 | 47 ft | 20 kts | 50° |
| 2026-04-26 20:30 | 53.62931 | 9.99038 | 47 ft | 22 kts | 50° |
| 2026-04-26 20:30 | 53.62995 | 9.99167 | 47 ft | 15 kts | 51° |
| 2026-04-26 20:30 | 53.63059 | 9.99306 | 47 ft | 10 kts | 54° |
| 2026-04-26 20:31 | 53.63087 | 9.99372 | 47 ft | 11 kts | 55° |
| 2026-04-26 20:31 | 53.63164 | 9.99553 | 46 ft | 14 kts | 51° |
| 2026-04-26 20:31 | 53.63223 | 9.99671 | 48 ft | 12 kts | 49° |
| 2026-04-26 20:31 | 53.63297 | 9.99799 | 48 ft | 21 kts | 49° |
| 2026-04-26 20:32 | 53.63364 | 9.99930 | 48 ft | 23 kts | 49° |
| 2026-04-26 20:32 | 53.63415 | 10.00147 | 48 ft | 11 kts | 130° |
| 2026-04-26 20:32 | 53.63369 | 10.00159 | 45 ft | 6 kts | 173° |
| 2026-04-26 20:32 | 53.63331 | 10.00166 | 48 ft | 5 kts | 174° |
| 2026-04-26 20:33 | 53.63293 | 10.00172 | 48 ft | 7 kts | 175° |
| 2026-04-26 20:33 | 53.63246 | 10.00178 | 46 ft | 6 kts | 175° |
| 2026-04-26 20:33 | 53.63205 | 10.00184 | 48 ft | 5 kts | 175° |
| 2026-04-26 20:33 | 53.63181 | 10.00191 | 48 ft | 6 kts | 163° |
| 2026-04-26 20:34 | 53.63164 | 10.00287 | 48 ft | 9 kts | 87° |
| 2026-04-26 20:34 | 53.63166 | 10.00344 | 48 ft | 4 kts | 84° |
| 2026-04-26 20:34 | 53.63167 | 10.00364 | 48 ft | 0 kts | 84° |